Pileas I — P3YG9 — position and weather

sailwx.info

Track history (hours):
 
Tides and Currents Weather Stations Pressure Air Temp Water Temp Dewpoint Dewpoint Depression Visibility Wind Speed Wind Dir Waves Ship Positions

Pileas I

Last reported at 2015-Mar-11 14:18 UTC. Time now 2015-Mar-31 00:20 UTC.
Position N 34°27' E 032°34'.
Warning: this ship's position is 19 days out of date.

Length 36 m; draft 3.6 m.

Type: Tug. MMSI: 209668000.

Date/timePositionNaut miles runAvg speedWind from/ knotsBaromVisibWave heightAir tempDewpointWater temp
2015-Mar-11 14:18N 34°27' E 032°34'6 8.4
2015-Mar-11 13:33N 34°28' E 032°42'8 8.4
2015-Mar-11 12:33N 34°30' E 032°52'8 8.4
2015-Mar-11 11:33N 34°31' E 033°02'8 7.6
2015-Mar-11 10:33N 34°39' E 033°03'1 0.9
2015-Mar-11 09:31N 34°39' E 033°02'0 0.0
2015-Mar-11 08:32N 34°39' E 033°02'1 1.3
2015-Mar-11 07:32N 34°39' E 033°01'0 0.0
2015-Mar-11 06:33N 34°39' E 033°00'0 0.0
2015-Mar-11 05:30N 34°39' E 033°00'0 0.0
2015-Mar-11 04:33N 34°39' E 033°00'0 0.0
2015-Mar-11 03:33N 34°39' E 033°00'0 0.0
2015-Mar-11 02:33N 34°39' E 033°00'0 0.0
2015-Mar-11 01:30N 34°39' E 033°00'0 0.0
2015-Mar-11 00:31N 34°39' E 033°00'0 0.0
2015-Mar-10 23:33N 34°39' E 033°00'0 0.0
2015-Mar-10 22:33N 34°39' E 033°00'0 0.0
2015-Mar-10 21:24N 34°39' E 033°00'0 0.0
2015-Mar-10 20:21N 34°39' E 033°00'0 0.0
2015-Mar-10 19:33N 34°39' E 033°00'0 0.0
2015-Mar-10 18:09N 34°39' E 033°00'0 0.0
2015-Mar-10 17:31N 34°39' E 033°00'0 0.0
2015-Mar-10 16:33N 34°39' E 033°00'0 0.0
2015-Mar-10 15:31N 34°39' E 033°00'0 0.0
2015-Mar-10 14:31N 34°39' E 033°00'0 0.0
2015-Mar-10 13:28N 34°39' E 033°00'0 0.0
2015-Mar-10 12:30N 34°39' E 033°00'0 0.0
2015-Mar-10 11:33N 34°39' E 033°00'0 0.0
2015-Mar-10 10:32N 34°39' E 033°00'0 0.0
2015-Mar-10 09:33N 34°39' E 033°00'0 0.0
2015-Mar-10 08:32N 34°39' E 033°00'0 0.0
2015-Mar-10 07:32N 34°39' E 033°00'0 0.0
2015-Mar-10 06:32N 34°39' E 033°00'0 0.0
2015-Mar-10 05:32N 34°39' E 033°00'0 0.0
2015-Mar-10 04:33N 34°39' E 033°00'0 0.0
2015-Mar-10 03:32N 34°39' E 033°00'0 0.0
2015-Mar-10 02:32N 34°39' E 033°00'0 0.0
2015-Mar-10 01:32N 34°39' E 033°00'0 0.0
2015-Mar-10 00:26N 34°39' E 033°00'0 0.0
2015-Mar-09 22:32N 34°39' E 033°00'0 0.0
2015-Mar-09 20:27N 34°39' E 033°00'0 0.0
2015-Mar-09 19:27N 34°39' E 033°00'0 0.0
2015-Mar-09 16:12N 34°39' E 033°00'0 0.0
2015-Mar-09 14:30N 34°39' E 033°00'0 0.0
2015-Mar-09 13:12N 34°39' E 033°00'0 0.3
2015-Mar-09 12:33N 34°39' E 033°01'0 0.2
2015-Mar-09 11:32N 34°39' E 033°00'0 0.0
2015-Mar-09 10:31N 34°39' E 033°00'0 0.0
2015-Mar-09 09:31N 34°39' E 033°00'0 0.0
2015-Mar-09 08:31N 34°39' E 033°00'0 0.0
2015-Mar-09 07:32N 34°39' E 033°00'0 0.0
2015-Mar-09 06:31N 34°39' E 033°00'0 0.0
2015-Mar-09 05:31N 34°39' E 033°00'0 0.0
2015-Mar-09 04:30N 34°39' E 033°00'0 0.0
2015-Mar-09 03:33N 34°39' E 033°00'0 0.0
2015-Mar-09 02:33N 34°39' E 033°00'0 0.0
2015-Mar-09 01:33N 34°39' E 033°00'0 0.0
2015-Mar-09 00:33N 34°39' E 033°00'0 0.0
2015-Mar-08 23:33N 34°39' E 033°00'0 0.0
2015-Mar-08 22:33N 34°39' E 033°00'0 0.0
2015-Mar-08 21:33N 34°39' E 033°00'0 0.0
2015-Mar-08 20:33N 34°39' E 033°00'0 0.0
2015-Mar-08 19:31N 34°39' E 033°00'0 0.0
2015-Mar-08 18:33N 34°39' E 033°00'0 0.0
2015-Mar-08 17:33N 34°39' E 033°00'0 0.0
2015-Mar-08 16:33N 34°39' E 033°00'0 0.0
2015-Mar-08 15:33N 34°39' E 033°00'0 0.0
2015-Mar-08 14:33N 34°39' E 033°00'0 0.0
2015-Mar-08 13:33N 34°39' E 033°00'0 0.0
2015-Mar-08 12:30N 34°39' E 033°00'0 0.0
2015-Mar-08 11:33N 34°39' E 033°00'0 0.0
2015-Mar-08 10:30N 34°39' E 033°00'0 0.0
2015-Mar-08 09:33N 34°39' E 033°00'0 0.0
2015-Mar-08 08:33N 34°39' E 033°00'0 0.0
2015-Mar-08 07:33N 34°39' E 033°00'0 0.0
2015-Mar-08 06:33N 34°39' E 033°00'0 0.0
2015-Mar-08 05:30N 34°39' E 033°00'0 0.0
2015-Mar-08 04:30N 34°39' E 033°00'0 0.0
2015-Mar-08 03:30N 34°39' E 033°00'0 0.0
2015-Mar-08 02:34N 34°39' E 033°00'0 0.0
2015-Mar-08 01:33N 34°39' E 033°00'0 0.0
2015-Mar-08 00:33N 34°39' E 033°00'0 0.0
2015-Mar-07 23:33N 34°39' E 033°00'0 0.0
2015-Mar-07 22:33N 34°39' E 033°00'0 0.0
2015-Mar-07 21:33N 34°39' E 033°00'0 0.0
2015-Mar-07 20:33N 34°39' E 033°00'0 0.0
2015-Mar-07 19:33N 34°39' E 033°00'0 0.0
2015-Mar-07 18:33N 34°39' E 033°00'0 0.0
2015-Mar-07 17:28N 34°39' E 033°00'0 0.0
2015-Mar-07 16:31N 34°39' E 033°00'0 0.0
2015-Mar-07 15:31N 34°39' E 033°00'0 0.0
2015-Mar-07 14:31N 34°39' E 033°00'0 0.0
2015-Mar-07 13:30N 34°39' E 033°00'0 0.0
2015-Mar-07 12:33N 34°39' E 033°00'0 0.0
2015-Mar-07 11:31N 34°39' E 033°00'0 0.0
2015-Mar-07 10:31N 34°39' E 033°00'0 0.0
2015-Mar-07 09:31N 34°39' E 033°00'0 0.0
2015-Mar-07 08:30N 34°39' E 033°00'0 0.0
2015-Mar-07 07:31N 34°39' E 033°00'0 0.0
2015-Mar-07 06:32N 34°39' E 033°00'0 0.0
2015-Mar-07 05:31N 34°39' E 033°00'0 0.0
2015-Mar-07 04:32N 34°39' E 033°00'0 0.0
2015-Mar-07 03:32N 34°39' E 033°00'0 0.0
2015-Mar-07 02:32N 34°39' E 033°00'0 0.0
2015-Mar-07 01:31N 34°39' E 033°00'0 0.0
2015-Mar-07 00:22N 34°39' E 033°00'0 0.0
2015-Mar-06 22:14N 34°39' E 033°00'0 0.0
2015-Mar-06 21:20N 34°39' E 033°00'0 0.0
2015-Mar-06 17:29N 34°39' E 033°00'0 0.0
2015-Mar-06 16:08N 34°39' E 033°00'0 0.0
2015-Mar-06 14:13N 34°39' E 033°00'0 0.0
2015-Mar-06 13:28N 34°39' E 033°00'0 0.0
2015-Mar-06 12:31N 34°39' E 033°00'0 0.0
2015-Mar-06 11:31N 34°39' E 033°00'0 0.0
2015-Mar-06 10:31N 34°39' E 033°00'0 0.0
2015-Mar-06 09:31N 34°39' E 033°00'0 0.0
2015-Mar-06 08:31N 34°39' E 033°00'0 0.0
2015-Mar-06 07:33N 34°39' E 033°00'0 0.0
2015-Mar-06 06:31N 34°39' E 033°00'0 0.0
2015-Mar-06 05:33N 34°39' E 033°00'0 0.0
2015-Mar-06 04:30N 34°39' E 033°00'0 0.0
2015-Mar-06 03:33N 34°39' E 033°00'0 0.0
2015-Mar-06 02:33N 34°39' E 033°00'0 0.0
2015-Mar-06 01:33N 34°39' E 033°00'0 0.0
2015-Mar-06 00:32N 34°39' E 033°00'0 0.0
2015-Mar-05 23:30N 34°39' E 033°00'0 0.0
2015-Mar-05 22:33N 34°39' E 033°00'0 0.0
2015-Mar-05 21:33N 34°39' E 033°00'0 0.0
2015-Mar-05 20:33N 34°39' E 033°00'0 0.0
2015-Mar-05 19:33N 34°39' E 033°00'0 0.0
2015-Mar-05 18:32N 34°39' E 033°00'0 0.0
2015-Mar-05 17:32N 34°39' E 033°00'0 0.0
2015-Mar-05 16:32N 34°39' E 033°00'0 0.0
2015-Mar-05 15:32N 34°39' E 033°00'0 0.0
2015-Mar-05 14:32N 34°39' E 033°00'0 0.0
2015-Mar-05 13:32N 34°39' E 033°00'0 0.0
2015-Mar-05 12:32N 34°39' E 033°00'0 0.0
2015-Mar-05 11:32N 34°39' E 033°00'0 0.0
2015-Mar-05 10:32N 34°39' E 033°00'0 0.0
2015-Mar-05 09:32N 34°39' E 033°00'0 0.0
2015-Mar-05 08:31N 34°39' E 033°00'0 0.0
2015-Mar-05 07:31N 34°39' E 033°00'0 0.0
2015-Mar-05 06:31N 34°39' E 033°00'0 0.0
2015-Mar-05 05:33N 34°39' E 033°00'0 0.0
2015-Mar-05 04:33N 34°39' E 033°00'0 0.0
2015-Mar-05 03:33N 34°39' E 033°00'0 0.0
2015-Mar-05 02:32N 34°39' E 033°00'0 0.0
2015-Mar-05 01:33N 34°39' E 033°00'0 0.0
2015-Mar-05 00:32N 34°39' E 033°00'0 0.0
2015-Mar-04 23:32N 34°39' E 033°00'0 0.0
2015-Mar-04 22:33N 34°39' E 033°00'0 0.0
2015-Mar-04 21:32N 34°39' E 033°00'0 0.0
2015-Mar-04 20:32N 34°39' E 033°00'0 0.0
2015-Mar-04 19:32N 34°39' E 033°00'0 0.0
2015-Mar-04 18:32N 34°39' E 033°00'0 0.0
2015-Mar-04 17:32N 34°39' E 033°00'0 0.0
2015-Mar-04 16:32N 34°39' E 033°00'0 0.0
2015-Mar-04 15:32N 34°39' E 033°00'0 0.0
2015-Mar-04 14:32N 34°39' E 033°00'0 0.0
2015-Mar-04 13:32N 34°39' E 033°00'0 0.0
2015-Mar-04 12:31N 34°39' E 033°00'0 0.0
2015-Mar-04 11:32N 34°39' E 033°00'0 0.0
2015-Mar-04 10:32N 34°39' E 033°00'0 0.0
2015-Mar-04 09:32N 34°39' E 033°00'0 0.0
2015-Mar-04 08:31N 34°39' E 033°00'0 0.0
2015-Mar-04 07:27N 34°39' E 033°00'0 0.0
2015-Mar-04 06:31N 34°39' E 033°00'0 0.0
2015-Mar-04 05:32N 34°39' E 033°00'0 0.0
2015-Mar-04 04:31N 34°39' E 033°00'0 0.0
2015-Mar-04 03:32N 34°39' E 033°00'0 0.0
2015-Mar-04 02:31N 34°39' E 033°00'0 0.0
2015-Mar-04 01:32N 34°39' E 033°00'0 0.0
2015-Mar-04 00:31N 34°39' E 033°00'0 0.0
2015-Mar-03 23:31N 34°39' E 033°00'0 0.0
2015-Mar-03 22:31N 34°39' E 033°00'0 0.0
2015-Mar-03 21:31N 34°39' E 033°00'0 0.0
2015-Mar-03 20:31N 34°39' E 033°00'0 0.0
2015-Mar-03 19:31N 34°39' E 033°00'0 0.0
2015-Mar-03 18:31N 34°39' E 033°00'0 0.0
2015-Mar-03 17:32N 34°39' E 033°00'0 0.0
2015-Mar-03 16:33N 34°39' E 033°00'0 0.0
2015-Mar-03 15:32N 34°39' E 033°00'0 0.0
2015-Mar-03 14:31N 34°39' E 033°00'0 0.0
2015-Mar-03 13:28N 34°39' E 033°00'0 0.0
2015-Mar-03 12:31N 34°39' E 033°00'0 0.0
2015-Mar-03 11:32N 34°39' E 033°00'0 0.0
2015-Mar-03 10:32N 34°39' E 033°00'0 0.0
2015-Mar-03 09:31N 34°39' E 033°00'0 0.0
2015-Mar-03 08:31N 34°39' E 033°00'0 0.0
2015-Mar-03 07:32N 34°39' E 033°00'0 0.0
2015-Mar-03 06:31N 34°39' E 033°00'0 0.0
2015-Mar-03 05:26N 34°39' E 033°00'0 0.0
2015-Mar-03 04:32N 34°39' E 033°00'0 0.0
2015-Mar-03 03:32N 34°39' E 033°00'0 0.0
2015-Mar-03 02:32N 34°39' E 033°00'0 0.0
2015-Mar-03 01:32N 34°39' E 033°00'0 0.0
2015-Mar-03 00:32N 34°39' E 033°00'0 0.0
2015-Mar-02 23:32N 34°39' E 033°00'0 0.0
2015-Mar-02 22:31N 34°39' E 033°00'0 0.0
2015-Mar-02 21:32N 34°39' E 033°00'0 0.0
2015-Mar-02 20:32N 34°39' E 033°00'0 0.0
2015-Mar-02 19:32N 34°39' E 033°00'0 0.0
2015-Mar-02 18:32N 34°39' E 033°00'0 0.0
2015-Mar-02 05:28N 34°39' E 033°00'0 0.0
2015-Mar-02 04:31N 34°39' E 033°00'0 0.0
2015-Mar-02 03:31N 34°39' E 033°00'0 0.0
2015-Mar-02 02:31N 34°39' E 033°00'0 0.0
2015-Mar-02 01:31N 34°39' E 033°00'0 0.0
2015-Mar-02 00:31N 34°39' E 033°00'0 0.0
2015-Mar-01 23:31N 34°39' E 033°00'0 0.0
2015-Mar-01 22:31N 34°39' E 033°00'0 0.0
2015-Mar-01 21:31N 34°39' E 033°00'0 0.0
2015-Mar-01 20:31N 34°39' E 033°00'0 0.0
2015-Mar-01 19:31N 34°39' E 033°00'0 0.0
2015-Mar-01 18:31N 34°39' E 033°00'0 0.0
2015-Mar-01 17:31N 34°39' E 033°00'0 0.0
2015-Mar-01 16:31N 34°39' E 033°00'0 0.0
2015-Mar-01 15:32N 34°39' E 033°00'0 0.0
2015-Mar-01 14:31N 34°39' E 033°00'  
Track history (hours):
 
Tides and Currents Weather Stations Pressure Air Temp Water Temp Dewpoint Dewpoint Depression Visibility Wind Speed Wind Dir Waves Ship Positions

Pileas I

Last reported at 2015-Mar-11 14:18 UTC. Time now 2015-Mar-31 00:20 UTC.
Position N 34°27' E 032°34'.
Warning: this ship's position is 19 days out of date.

Length 36 m; draft 3.6 m.

Type: Tug. MMSI: 209668000.

Date/timePositionNaut miles runAvg speedWind from/ knotsBaromVisibWave heightAir tempDewpointWater temp
2015-Mar-11 14:18N 34°27' E 032°34'6 8.4
2015-Mar-11 13:33N 34°28' E 032°42'8 8.4
2015-Mar-11 12:33N 34°30' E 032°52'8 8.4
2015-Mar-11 11:33N 34°31' E 033°02'8 7.6
2015-Mar-11 10:33N 34°39' E 033°03'1 0.9
2015-Mar-11 09:31N 34°39' E 033°02'0 0.0
2015-Mar-11 08:32N 34°39' E 033°02'1 1.3
2015-Mar-11 07:32N 34°39' E 033°01'0 0.0
2015-Mar-11 06:33N 34°39' E 033°00'0 0.0
2015-Mar-11 05:30N 34°39' E 033°00'0 0.0
2015-Mar-11 04:33N 34°39' E 033°00'0 0.0
2015-Mar-11 03:33N 34°39' E 033°00'0 0.0
2015-Mar-11 02:33N 34°39' E 033°00'0 0.0
2015-Mar-11 01:30N 34°39' E 033°00'0 0.0
2015-Mar-11 00:31N 34°39' E 033°00'0 0.0
2015-Mar-10 23:33N 34°39' E 033°00'0 0.0
2015-Mar-10 22:33N 34°39' E 033°00'0 0.0
2015-Mar-10 21:24N 34°39' E 033°00'0 0.0
2015-Mar-10 20:21N 34°39' E 033°00'0 0.0
2015-Mar-10 19:33N 34°39' E 033°00'0 0.0
2015-Mar-10 18:09N 34°39' E 033°00'0 0.0
2015-Mar-10 17:31N 34°39' E 033°00'0 0.0
2015-Mar-10 16:33N 34°39' E 033°00'0 0.0
2015-Mar-10 15:31N 34°39' E 033°00'0 0.0
2015-Mar-10 14:31N 34°39' E 033°00'0 0.0
2015-Mar-10 13:28N 34°39' E 033°00'0 0.0
2015-Mar-10 12:30N 34°39' E 033°00'0 0.0
2015-Mar-10 11:33N 34°39' E 033°00'0 0.0
2015-Mar-10 10:32N 34°39' E 033°00'0 0.0
2015-Mar-10 09:33N 34°39' E 033°00'0 0.0
2015-Mar-10 08:32N 34°39' E 033°00'0 0.0
2015-Mar-10 07:32N 34°39' E 033°00'0 0.0
2015-Mar-10 06:32N 34°39' E 033°00'0 0.0
2015-Mar-10 05:32N 34°39' E 033°00'0 0.0
2015-Mar-10 04:33N 34°39' E 033°00'0 0.0
2015-Mar-10 03:32N 34°39' E 033°00'0 0.0
2015-Mar-10 02:32N 34°39' E 033°00'0 0.0
2015-Mar-10 01:32N 34°39' E 033°00'0 0.0
2015-Mar-10 00:26N 34°39' E 033°00'0 0.0
2015-Mar-09 22:32N 34°39' E 033°00'0 0.0
2015-Mar-09 20:27N 34°39' E 033°00'0 0.0
2015-Mar-09 19:27N 34°39' E 033°00'0 0.0
2015-Mar-09 16:12N 34°39' E 033°00'0 0.0
2015-Mar-09 14:30N 34°39' E 033°00'0 0.0
2015-Mar-09 13:12N 34°39' E 033°00'0 0.3
2015-Mar-09 12:33N 34°39' E 033°01'0 0.2
2015-Mar-09 11:32N 34°39' E 033°00'0 0.0
2015-Mar-09 10:31N 34°39' E 033°00'0 0.0
2015-Mar-09 09:31N 34°39' E 033°00'0 0.0
2015-Mar-09 08:31N 34°39' E 033°00'0 0.0
2015-Mar-09 07:32N 34°39' E 033°00'0 0.0
2015-Mar-09 06:31N 34°39' E 033°00'0 0.0
2015-Mar-09 05:31N 34°39' E 033°00'0 0.0
2015-Mar-09 04:30N 34°39' E 033°00'0 0.0
2015-Mar-09 03:33N 34°39' E 033°00'0 0.0
2015-Mar-09 02:33N 34°39' E 033°00'0 0.0
2015-Mar-09 01:33N 34°39' E 033°00'0 0.0
2015-Mar-09 00:33N 34°39' E 033°00'0 0.0
2015-Mar-08 23:33N 34°39' E 033°00'0 0.0
2015-Mar-08 22:33N 34°39' E 033°00'0 0.0
2015-Mar-08 21:33N 34°39' E 033°00'0 0.0
2015-Mar-08 20:33N 34°39' E 033°00'0 0.0
2015-Mar-08 19:31N 34°39' E 033°00'0 0.0
2015-Mar-08 18:33N 34°39' E 033°00'0 0.0
2015-Mar-08 17:33N 34°39' E 033°00'0 0.0
2015-Mar-08 16:33N 34°39' E 033°00'0 0.0
2015-Mar-08 15:33N 34°39' E 033°00'0 0.0
2015-Mar-08 14:33N 34°39' E 033°00'0 0.0
2015-Mar-08 13:33N 34°39' E 033°00'0 0.0
2015-Mar-08 12:30N 34°39' E 033°00'0 0.0
2015-Mar-08 11:33N 34°39' E 033°00'0 0.0
2015-Mar-08 10:30N 34°39' E 033°00'0 0.0
2015-Mar-08 09:33N 34°39' E 033°00'0 0.0
2015-Mar-08 08:33N 34°39' E 033°00'0 0.0
2015-Mar-08 07:33N 34°39' E 033°00'0 0.0
2015-Mar-08 06:33N 34°39' E 033°00'0 0.0
2015-Mar-08 05:30N 34°39' E 033°00'0 0.0
2015-Mar-08 04:30N 34°39' E 033°00'0 0.0
2015-Mar-08 03:30N 34°39' E 033°00'0 0.0
2015-Mar-08 02:34N 34°39' E 033°00'0 0.0
2015-Mar-08 01:33N 34°39' E 033°00'0 0.0
2015-Mar-08 00:33N 34°39' E 033°00'0 0.0
2015-Mar-07 23:33N 34°39' E 033°00'0 0.0
2015-Mar-07 22:33N 34°39' E 033°00'0 0.0
2015-Mar-07 21:33N 34°39' E 033°00'0 0.0
2015-Mar-07 20:33N 34°39' E 033°00'0 0.0
2015-Mar-07 19:33N 34°39' E 033°00'0 0.0
2015-Mar-07 18:33N 34°39' E 033°00'0 0.0
2015-Mar-07 17:28N 34°39' E 033°00'0 0.0
2015-Mar-07 16:31N 34°39' E 033°00'0 0.0
2015-Mar-07 15:31N 34°39' E 033°00'0 0.0
2015-Mar-07 14:31N 34°39' E 033°00'0 0.0
2015-Mar-07 13:30N 34°39' E 033°00'0 0.0
2015-Mar-07 12:33N 34°39' E 033°00'0 0.0
2015-Mar-07 11:31N 34°39' E 033°00'0 0.0
2015-Mar-07 10:31N 34°39' E 033°00'0 0.0
2015-Mar-07 09:31N 34°39' E 033°00'0 0.0
2015-Mar-07 08:30N 34°39' E 033°00'0 0.0
2015-Mar-07 07:31N 34°39' E 033°00'0 0.0
2015-Mar-07 06:32N 34°39' E 033°00'0 0.0
2015-Mar-07 05:31N 34°39' E 033°00'0 0.0
2015-Mar-07 04:32N 34°39' E 033°00'0 0.0
2015-Mar-07 03:32N 34°39' E 033°00'0 0.0
2015-Mar-07 02:32N 34°39' E 033°00'0 0.0
2015-Mar-07 01:31N 34°39' E 033°00'0 0.0
2015-Mar-07 00:22N 34°39' E 033°00'0 0.0
2015-Mar-06 22:14N 34°39' E 033°00'0 0.0
2015-Mar-06 21:20N 34°39' E 033°00'0 0.0
2015-Mar-06 17:29N 34°39' E 033°00'0 0.0
2015-Mar-06 16:08N 34°39' E 033°00'0 0.0
2015-Mar-06 14:13N 34°39' E 033°00'0 0.0
2015-Mar-06 13:28N 34°39' E 033°00'0 0.0
2015-Mar-06 12:31N 34°39' E 033°00'0 0.0
2015-Mar-06 11:31N 34°39' E 033°00'0 0.0
2015-Mar-06 10:31N 34°39' E 033°00'0 0.0
2015-Mar-06 09:31N 34°39' E 033°00'0 0.0
2015-Mar-06 08:31N 34°39' E 033°00'0 0.0
2015-Mar-06 07:33N 34°39' E 033°00'0 0.0
2015-Mar-06 06:31N 34°39' E 033°00'0 0.0
2015-Mar-06 05:33N 34°39' E 033°00'0 0.0
2015-Mar-06 04:30N 34°39' E 033°00'0 0.0
2015-Mar-06 03:33N 34°39' E 033°00'0 0.0
2015-Mar-06 02:33N 34°39' E 033°00'0 0.0
2015-Mar-06 01:33N 34°39' E 033°00'0 0.0
2015-Mar-06 00:32N 34°39' E 033°00'0 0.0
2015-Mar-05 23:30N 34°39' E 033°00'0 0.0
2015-Mar-05 22:33N 34°39' E 033°00'0 0.0
2015-Mar-05 21:33N 34°39' E 033°00'0 0.0
2015-Mar-05 20:33N 34°39' E 033°00'0 0.0
2015-Mar-05 19:33N 34°39' E 033°00'0 0.0
2015-Mar-05 18:32N 34°39' E 033°00'0 0.0
2015-Mar-05 17:32N 34°39' E 033°00'0 0.0
2015-Mar-05 16:32N 34°39' E 033°00'0 0.0
2015-Mar-05 15:32N 34°39' E 033°00'0 0.0
2015-Mar-05 14:32N 34°39' E 033°00'0 0.0
2015-Mar-05 13:32N 34°39' E 033°00'0 0.0
2015-Mar-05 12:32N 34°39' E 033°00'0 0.0
2015-Mar-05 11:32N 34°39' E 033°00'0 0.0
2015-Mar-05 10:32N 34°39' E 033°00'0 0.0
2015-Mar-05 09:32N 34°39' E 033°00'0 0.0
2015-Mar-05 08:31N 34°39' E 033°00'0 0.0
2015-Mar-05 07:31N 34°39' E 033°00'0 0.0
2015-Mar-05 06:31N 34°39' E 033°00'0 0.0
2015-Mar-05 05:33N 34°39' E 033°00'0 0.0
2015-Mar-05 04:33N 34°39' E 033°00'0 0.0
2015-Mar-05 03:33N 34°39' E 033°00'0 0.0
2015-Mar-05 02:32N 34°39' E 033°00'0 0.0
2015-Mar-05 01:33N 34°39' E 033°00'0 0.0
2015-Mar-05 00:32N 34°39' E 033°00'0 0.0
2015-Mar-04 23:32N 34°39' E 033°00'0 0.0
2015-Mar-04 22:33N 34°39' E 033°00'0 0.0
2015-Mar-04 21:32N 34°39' E 033°00'0 0.0
2015-Mar-04 20:32N 34°39' E 033°00'0 0.0
2015-Mar-04 19:32N 34°39' E 033°00'0 0.0
2015-Mar-04 18:32N 34°39' E 033°00'0 0.0
2015-Mar-04 17:32N 34°39' E 033°00'0 0.0
2015-Mar-04 16:32N 34°39' E 033°00'0 0.0
2015-Mar-04 15:32N 34°39' E 033°00'0 0.0
2015-Mar-04 14:32N 34°39' E 033°00'0 0.0
2015-Mar-04 13:32N 34°39' E 033°00'0 0.0
2015-Mar-04 12:31N 34°39' E 033°00'0 0.0
2015-Mar-04 11:32N 34°39' E 033°00'0 0.0
2015-Mar-04 10:32N 34°39' E 033°00'0 0.0
2015-Mar-04 09:32N 34°39' E 033°00'0 0.0
2015-Mar-04 08:31N 34°39' E 033°00'0 0.0
2015-Mar-04 07:27N 34°39' E 033°00'0 0.0
2015-Mar-04 06:31N 34°39' E 033°00'0 0.0
2015-Mar-04 05:32N 34°39' E 033°00'0 0.0
2015-Mar-04 04:31N 34°39' E 033°00'0 0.0
2015-Mar-04 03:32N 34°39' E 033°00'0 0.0
2015-Mar-04 02:31N 34°39' E 033°00'0 0.0
2015-Mar-04 01:32N 34°39' E 033°00'0 0.0
2015-Mar-04 00:31N 34°39' E 033°00'0 0.0
2015-Mar-03 23:31N 34°39' E 033°00'0 0.0
2015-Mar-03 22:31N 34°39' E 033°00'0 0.0
2015-Mar-03 21:31N 34°39' E 033°00'0 0.0
2015-Mar-03 20:31N 34°39' E 033°00'0 0.0
2015-Mar-03 19:31N 34°39' E 033°00'0 0.0
2015-Mar-03 18:31N 34°39' E 033°00'0 0.0
2015-Mar-03 17:32N 34°39' E 033°00'0 0.0
2015-Mar-03 16:33N 34°39' E 033°00'0 0.0
2015-Mar-03 15:32N 34°39' E 033°00'0 0.0
2015-Mar-03 14:31N 34°39' E 033°00'0 0.0
2015-Mar-03 13:28N 34°39' E 033°00'0 0.0
2015-Mar-03 12:31N 34°39' E 033°00'0 0.0
2015-Mar-03 11:32N 34°39' E 033°00'0 0.0
2015-Mar-03 10:32N 34°39' E 033°00'0 0.0
2015-Mar-03 09:31N 34°39' E 033°00'0 0.0
2015-Mar-03 08:31N 34°39' E 033°00'0 0.0
2015-Mar-03 07:32N 34°39' E 033°00'0 0.0
2015-Mar-03 06:31N 34°39' E 033°00'0 0.0
2015-Mar-03 05:26N 34°39' E 033°00'0 0.0
2015-Mar-03 04:32N 34°39' E 033°00'0 0.0
2015-Mar-03 03:32N 34°39' E 033°00'0 0.0
2015-Mar-03 02:32N 34°39' E 033°00'0 0.0
2015-Mar-03 01:32N 34°39' E 033°00'0 0.0
2015-Mar-03 00:32N 34°39' E 033°00'0 0.0
2015-Mar-02 23:32N 34°39' E 033°00'0 0.0
2015-Mar-02 22:31N 34°39' E 033°00'0 0.0
2015-Mar-02 21:32N 34°39' E 033°00'0 0.0
2015-Mar-02 20:32N 34°39' E 033°00'0 0.0
2015-Mar-02 19:32N 34°39' E 033°00'0 0.0
2015-Mar-02 18:32N 34°39' E 033°00'0 0.0
2015-Mar-02 05:28N 34°39' E 033°00'0 0.0
2015-Mar-02 04:31N 34°39' E 033°00'0 0.0
2015-Mar-02 03:31N 34°39' E 033°00'0 0.0
2015-Mar-02 02:31N 34°39' E 033°00'0 0.0
2015-Mar-02 01:31N 34°39' E 033°00'0 0.0
2015-Mar-02 00:31N 34°39' E 033°00'0 0.0
2015-Mar-01 23:31N 34°39' E 033°00'0 0.0
2015-Mar-01 22:31N 34°39' E 033°00'0 0.0
2015-Mar-01 21:31N 34°39' E 033°00'0 0.0
2015-Mar-01 20:31N 34°39' E 033°00'0 0.0
2015-Mar-01 19:31N 34°39' E 033°00'0 0.0
2015-Mar-01 18:31N 34°39' E 033°00'0 0.0
2015-Mar-01 17:31N 34°39' E 033°00'0 0.0
2015-Mar-01 16:31N 34°39' E 033°00'0 0.0
2015-Mar-01 15:32N 34°39' E 033°00'0 0.0
2015-Mar-01 14:31N 34°39' E 033°00'  

Dump ship's entire track history